Boi Taull, Spain
Current Conditions -  °F | °C
As of 12:00 AM on Thursday 18 Dec 2014 (Local Time) from LFBT Reporting Station
Drizzle Drizzle  
Wind Chill: 42°   Ceiling: 2400
Heat Index: 48°   Visibility: 6mi
Dew Point: 46°   Wind: 16mph
Humidity: 93%   Direction: 240°WSW
Pressure: 30.36"   Gusts: NA
Location:  42.52°N, 0.85°E
Report Text: LFBT 172300Z AUTO 24014KT 220V280 9000 -DZ SCT015 BKN024BKN032 09/08 Q1028
Loading
Personal Weather Stations






























Interactive Weather Map New forecast layout! Learn more

10-Day Weather Forecast

Advertisements
Track Severe Weather on mobile